createdAt,value
2018-07-07T00:00:52.227Z,2.37
2018-07-07T00:03:20.136Z,2.47
2018-07-07T00:05:48.203Z,2.30
2018-07-07T00:08:16.516Z,2.30
2018-07-07T00:10:47.407Z,2.40
2018-07-07T00:13:15.159Z,2.30
2018-07-07T00:15:42.829Z,2.77
2018-07-07T00:18:10.558Z,2.53
2018-07-07T00:20:38.321Z,2.80
2018-07-07T00:23:06.117Z,2.60
2018-07-07T00:25:33.876Z,3.00
2018-07-07T00:28:01.622Z,2.57
2018-07-07T00:30:29.306Z,2.70
2018-07-07T00:32:56.977Z,3.17
2018-07-07T00:35:24.771Z,2.80
2018-07-07T00:37:52.449Z,2.77
2018-07-07T00:40:21.365Z,3.40
2018-07-07T00:42:49.237Z,3.67
2018-07-07T00:45:16.885Z,3.97
2018-07-07T00:47:44.827Z,3.47
2018-07-07T00:50:13.540Z,3.27
2018-07-07T00:52:41.256Z,3.63
2018-07-07T00:55:08.971Z,3.57
2018-07-07T00:57:37.415Z,3.80
2018-07-07T01:00:05.155Z,4.37
2018-07-07T01:02:32.952Z,3.80
2018-07-07T01:05:00.853Z,3.83
2018-07-07T01:07:28.548Z,3.97
2018-07-07T01:09:56.421Z,4.07
2018-07-07T01:12:24.235Z,3.90
2018-07-07T01:14:51.875Z,3.97
2018-07-07T01:17:20.580Z,3.90
2018-07-07T01:19:48.348Z,3.87
2018-07-07T01:22:16.010Z,3.90
2018-07-07T01:24:43.977Z,4.00
2018-07-07T01:27:11.754Z,4.17
2018-07-07T01:29:40.291Z,4.53
2018-07-07T01:32:08.137Z,4.20
2018-07-07T01:34:36.458Z,4.17
2018-07-07T01:37:04.079Z,4.20
2018-07-07T01:39:31.886Z,4.13
2018-07-07T01:41:59.766Z,4.23
2018-07-07T01:44:27.428Z,4.20
2018-07-07T01:46:55.129Z,4.10
2018-07-07T01:49:24.201Z,4.37
2018-07-07T01:51:51.857Z,3.93
2018-07-07T01:54:19.556Z,3.63
2018-07-07T01:56:47.449Z,3.63
2018-07-07T01:59:15.765Z,3.90
2018-07-07T02:01:43.746Z,3.33
2018-07-07T02:04:11.653Z,3.60
2018-07-07T02:06:39.285Z,3.63
2018-07-07T02:09:08.037Z,3.20
2018-07-07T02:11:35.910Z,3.10
2018-07-07T02:14:03.890Z,3.17
2018-07-07T02:16:31.856Z,2.87
2018-07-07T02:18:59.665Z,2.57
2018-07-07T02:21:27.268Z,2.63
2018-07-07T02:23:55.112Z,2.50
2018-07-07T02:26:22.883Z,2.60
2018-07-07T02:28:50.583Z,2.40
2018-07-07T02:31:18.334Z,2.00
2018-07-07T02:33:46.125Z,2.13
2018-07-07T02:36:13.719Z,1.93
2018-07-07T02:38:42.073Z,2.07
2018-07-07T02:41:09.976Z,1.93
2018-07-07T02:43:37.588Z,2.00
2018-07-07T02:46:05.356Z,1.67
2018-07-07T02:48:33.054Z,1.53
2018-07-07T02:51:00.917Z,1.63
2018-07-07T02:53:28.771Z,1.47
2018-07-07T02:55:56.653Z,1.30
2018-07-07T02:58:24.273Z,1.60
2018-07-07T03:00:52.129Z,1.37
2018-07-07T03:03:20.009Z,1.40
2018-07-07T03:05:48.481Z,1.60
2018-07-07T03:08:16.989Z,1.40
2018-07-07T03:10:44.732Z,1.47
2018-07-07T03:13:12.362Z,1.23
2018-07-07T03:15:40.163Z,1.10
2018-07-07T03:18:07.889Z,1.23
2018-07-07T03:20:35.547Z,1.20
2018-07-07T03:23:03.334Z,1.20
2018-07-07T03:25:31.448Z,1.10
2018-07-07T03:27:59.042Z,1.20
2018-07-07T03:30:27.975Z,1.10
2018-07-07T03:32:55.776Z,1.00
2018-07-07T03:35:23.527Z,0.87
2018-07-07T03:37:51.305Z,1.00
2018-07-07T03:40:19.100Z,0.90
2018-07-07T03:42:46.794Z,1.37
2018-07-07T03:45:14.979Z,1.17
2018-07-07T03:47:42.798Z,1.17
2018-07-07T03:50:10.468Z,1.03
2018-07-07T03:52:38.464Z,1.10
2018-07-07T03:55:06.348Z,0.93
2018-07-07T03:57:34.079Z,0.90
2018-07-07T04:00:02.066Z,1.10
2018-07-07T04:02:30.867Z,0.90
2018-07-07T04:04:59.681Z,1.00
2018-07-07T04:07:27.502Z,1.00
2018-07-07T04:09:55.391Z,1.10
2018-07-07T04:12:23.060Z,1.00
2018-07-07T04:14:50.907Z,1.10
2018-07-07T04:17:18.774Z,0.83
2018-07-07T04:19:46.490Z,1.00
2018-07-07T04:22:14.326Z,0.67
2018-07-07T04:24:42.124Z,0.93
2018-07-07T04:27:09.758Z,0.97
2018-07-07T04:29:37.731Z,0.97
2018-07-07T04:32:05.873Z,0.80
2018-07-07T04:34:33.526Z,1.00
2018-07-07T04:37:02.702Z,0.87
2018-07-07T04:39:30.470Z,1.00
2018-07-07T04:41:58.222Z,1.10
2018-07-07T04:44:26.071Z,1.10
2018-07-07T04:46:53.962Z,0.93
2018-07-07T04:49:21.609Z,1.10
2018-07-07T04:51:50.422Z,1.10
2018-07-07T04:54:18.369Z,1.00
2018-07-07T04:56:46.024Z,0.93
2018-07-07T04:59:13.796Z,0.90
2018-07-07T05:01:42.075Z,1.00
2018-07-07T05:04:09.701Z,1.20
2018-07-07T05:06:37.611Z,1.00
2018-07-07T05:09:05.499Z,0.80
2018-07-07T05:11:33.454Z,1.20
2018-07-07T05:14:01.323Z,1.00
2018-07-07T05:16:29.129Z,1.20
2018-07-07T05:18:56.756Z,0.97
2018-07-07T05:21:24.600Z,0.87
2018-07-07T05:23:52.361Z,1.00
2018-07-07T05:26:20.063Z,1.13
2018-07-07T05:28:47.751Z,1.00
2018-07-07T05:31:16.505Z,0.90
2018-07-07T05:33:44.109Z,1.20
2018-07-07T05:36:12.090Z,1.20
2018-07-07T05:38:41.184Z,1.10
2018-07-07T05:41:08.839Z,1.00
2018-07-07T05:43:36.779Z,0.90
2018-07-07T05:46:04.712Z,1.00
2018-07-07T05:48:32.344Z,1.33
2018-07-07T05:51:00.841Z,1.10
2018-07-07T05:53:28.699Z,1.00
2018-07-07T05:55:57.355Z,0.80
2018-07-07T05:58:25.042Z,0.87
2018-07-07T06:00:52.879Z,0.83
2018-07-07T06:03:20.611Z,0.97
2018-07-07T06:05:48.734Z,0.93
2018-07-07T06:08:16.512Z,1.00
2018-07-07T06:10:44.118Z,1.13
2018-07-07T06:13:11.926Z,0.97
2018-07-07T06:15:39.774Z,1.13
2018-07-07T06:18:07.507Z,1.10
2018-07-07T06:20:35.349Z,1.20
2018-07-07T06:23:04.159Z,1.10
2018-07-07T06:25:31.809Z,1.10
2018-07-07T06:28:00.380Z,1.00
2018-07-07T06:30:28.219Z,1.10
2018-07-07T06:32:56.124Z,1.00
2018-07-07T06:35:23.896Z,1.00
2018-07-07T06:37:51.710Z,1.20
2018-07-07T06:40:19.419Z,1.10
2018-07-07T06:42:47.266Z,0.90
2018-07-07T06:45:15.151Z,0.87
2018-07-07T06:47:42.992Z,1.07
2018-07-07T06:50:10.929Z,1.10
2018-07-07T06:52:39.089Z,0.97
2018-07-07T06:55:06.777Z,1.23
2018-07-07T06:57:34.649Z,1.10
2018-07-07T07:00:02.529Z,1.03
2018-07-07T07:02:30.205Z,1.10
2018-07-07T07:04:58.746Z,1.10
2018-07-07T07:07:26.647Z,1.07
2018-07-07T07:09:54.276Z,1.20
2018-07-07T07:12:22.263Z,0.70
2018-07-07T07:14:50.218Z,0.90
2018-07-07T07:17:17.899Z,1.20
2018-07-07T07:19:45.664Z,0.80
2018-07-07T07:22:13.439Z,1.13
2018-07-07T07:24:41.113Z,0.90
2018-07-07T07:27:08.927Z,1.03
2018-07-07T07:29:36.736Z,1.00
2018-07-07T07:32:04.382Z,1.00
2018-07-07T07:34:32.453Z,0.73
2018-07-07T07:37:00.287Z,1.00
2018-07-07T07:39:27.923Z,1.20
2018-07-07T07:41:56.254Z,0.90
2018-07-07T07:44:24.782Z,1.10
2018-07-07T07:46:52.416Z,0.83
2018-07-07T07:49:20.176Z,1.07
2018-07-07T07:51:48.014Z,1.20
2018-07-07T07:54:15.677Z,1.03
2018-07-07T07:56:43.533Z,1.00
2018-07-07T07:59:11.368Z,1.00
2018-07-07T08:01:39.027Z,1.10
2018-07-07T08:04:06.825Z,0.90
2018-07-07T08:06:34.620Z,1.00
2018-07-07T08:09:02.390Z,0.90
2018-07-07T08:11:30.214Z,1.13
2018-07-07T08:13:57.989Z,0.87
2018-07-07T08:16:25.626Z,1.00
2018-07-07T08:18:53.315Z,1.17
2018-07-07T08:21:21.078Z,1.10
2018-07-07T08:23:48.699Z,1.00
2018-07-07T08:26:16.644Z,1.07
2018-07-07T08:28:44.401Z,1.07
2018-07-07T08:31:12.077Z,1.00
2018-07-07T08:33:39.876Z,0.80
2018-07-07T08:36:07.907Z,1.00
2018-07-07T08:38:35.517Z,0.90
2018-07-07T08:41:03.654Z,0.80
2018-07-07T08:43:31.360Z,1.03
2018-07-07T08:45:58.915Z,0.70
2018-07-07T08:48:26.687Z,1.10
2018-07-07T08:50:54.362Z,1.10
2018-07-07T08:53:22.026Z,1.00
2018-07-07T08:55:49.873Z,0.90
2018-07-07T08:58:17.744Z,0.90
2018-07-07T09:00:46.426Z,0.80
2018-07-07T09:03:14.251Z,0.80
2018-07-07T09:05:42.101Z,1.10
2018-07-07T09:08:09.789Z,0.87
2018-07-07T09:10:37.564Z,0.80
2018-07-07T09:13:05.380Z,0.80
2018-07-07T09:15:33.006Z,1.03
2018-07-07T09:18:00.887Z,0.77
2018-07-07T09:20:28.767Z,0.80
2018-07-07T09:22:57.434Z,0.80
2018-07-07T09:25:25.230Z,1.07
2018-07-07T09:27:52.968Z,1.00
2018-07-07T09:30:20.579Z,1.00
2018-07-07T09:32:48.335Z,0.93
2018-07-07T09:35:16.032Z,1.10
2018-07-07T09:37:43.877Z,1.00
2018-07-07T09:40:11.499Z,1.10
2018-07-07T09:42:39.260Z,1.00
2018-07-07T09:45:06.962Z,0.83
2018-07-07T09:47:34.814Z,0.90
2018-07-07T09:50:02.750Z,1.00
2018-07-07T09:52:30.437Z,0.80
2018-07-07T09:54:58.138Z,1.30
2018-07-07T09:57:26.051Z,1.00
2018-07-07T09:59:53.695Z,1.00
2018-07-07T10:02:21.477Z,1.00
2018-07-07T10:04:49.254Z,0.87
2018-07-07T10:07:16.834Z,0.97
2018-07-07T10:09:44.721Z,1.00
2018-07-07T10:12:12.823Z,0.77
2018-07-07T10:14:40.457Z,0.90
2018-07-07T10:17:08.333Z,1.00
2018-07-07T10:19:36.288Z,1.00
2018-07-07T10:22:04.025Z,1.10
2018-07-07T10:24:31.842Z,0.90
2018-07-07T10:26:59.653Z,0.87
2018-07-07T10:29:27.321Z,0.87
2018-07-07T10:31:55.093Z,0.80
2018-07-07T10:34:22.843Z,1.03
2018-07-07T10:36:50.485Z,1.00
2018-07-07T10:39:18.529Z,1.07
2018-07-07T10:41:46.375Z,0.80
2018-07-07T10:44:14.124Z,0.97
2018-07-07T10:46:41.931Z,1.07
2018-07-07T10:49:09.713Z,1.10
2018-07-07T10:51:37.400Z,0.90
2018-07-07T10:54:05.270Z,0.73
2018-07-07T10:56:33.129Z,0.67
2018-07-07T10:59:00.768Z,1.00
2018-07-07T11:01:28.679Z,0.93
2018-07-07T11:03:56.541Z,1.00
2018-07-07T11:06:24.183Z,0.90
2018-07-07T11:08:52.030Z,0.77
2018-07-07T11:11:20.001Z,0.83
2018-07-07T11:13:47.609Z,0.70
2018-07-07T11:16:15.318Z,1.00
2018-07-07T11:18:43.550Z,0.80
2018-07-07T11:21:11.209Z,0.70
2018-07-07T11:23:39.041Z,0.83
2018-07-07T11:26:06.753Z,0.70
2018-07-07T11:28:34.658Z,0.60
2018-07-07T11:31:02.464Z,0.70
2018-07-07T11:33:30.132Z,0.80
2018-07-07T11:35:57.806Z,0.70
2018-07-07T11:38:25.501Z,0.70
2018-07-07T11:40:53.442Z,0.70
2018-07-07T11:43:21.243Z,0.70
2018-07-07T11:45:49.053Z,0.80
2018-07-07T11:48:16.656Z,0.80
2018-07-07T11:50:44.260Z,0.60
2018-07-07T11:53:12.091Z,0.70
2018-07-07T11:55:39.849Z,0.60
2018-07-07T11:58:07.580Z,0.70
2018-07-07T12:00:35.419Z,0.80
2018-07-07T12:03:03.106Z,0.60
2018-07-07T12:05:30.853Z,0.80
2018-07-07T12:08:13.316Z,0.73
2018-07-07T12:10:27.459Z,0.80
2018-07-07T12:12:55.085Z,0.73
2018-07-07T12:15:22.980Z,0.70
2018-07-07T12:17:50.907Z,0.77
2018-07-07T12:20:18.501Z,0.90
2018-07-07T12:22:46.404Z,0.60
2018-07-07T12:25:14.216Z,0.80
2018-07-07T12:27:41.927Z,0.87
2018-07-07T12:30:09.944Z,0.83
2018-07-07T12:32:37.804Z,0.80
2018-07-07T12:35:05.494Z,0.63
2018-07-07T12:37:33.397Z,0.83
2018-07-07T12:40:01.286Z,0.80
2018-07-07T12:42:29.120Z,0.80
2018-07-07T12:44:56.961Z,0.70
2018-07-07T12:47:24.558Z,0.70
2018-07-07T12:49:52.205Z,0.63
2018-07-07T12:52:19.919Z,0.90
2018-07-07T12:54:47.721Z,0.50
2018-07-07T12:57:15.363Z,0.60
2018-07-07T12:59:43.186Z,0.70
2018-07-07T13:02:10.889Z,0.60
2018-07-07T13:04:38.516Z,0.80
2018-07-07T13:07:06.451Z,0.50
2018-07-07T13:09:34.065Z,0.77
2018-07-07T13:12:01.741Z,0.70
2018-07-07T13:14:29.391Z,0.57
2018-07-07T13:16:56.981Z,0.70
2018-07-07T13:19:24.639Z,0.80
2018-07-07T13:21:52.559Z,0.70
2018-07-07T13:24:20.224Z,0.77
2018-07-07T13:26:47.979Z,0.70
2018-07-07T13:29:15.815Z,0.57
2018-07-07T13:31:43.401Z,0.73
2018-07-07T13:34:11.057Z,0.60
2018-07-07T13:36:38.885Z,0.90
2018-07-07T13:39:07.116Z,0.80
2018-07-07T13:41:34.864Z,0.60
2018-07-07T13:44:03.106Z,0.50
2018-07-07T13:46:30.745Z,0.60
2018-07-07T13:48:58.357Z,0.80
2018-07-07T13:51:26.124Z,0.70
2018-07-07T13:53:53.894Z,0.60
2018-07-07T13:56:21.597Z,0.67
2018-07-07T13:58:49.710Z,0.70
2018-07-07T14:01:17.453Z,0.60
2018-07-07T14:03:45.037Z,0.60
2018-07-07T14:06:12.825Z,0.70
2018-07-07T14:08:40.487Z,0.57
2018-07-07T14:11:08.205Z,0.60
2018-07-07T14:13:35.936Z,0.50
2018-07-07T14:16:03.822Z,0.87
2018-07-07T14:18:31.414Z,0.57
2018-07-07T14:20:59.175Z,0.63
2018-07-07T14:23:26.969Z,0.60
2018-07-07T14:25:54.599Z,0.70
2018-07-07T14:28:22.491Z,0.70
2018-07-07T14:30:50.372Z,0.53
2018-07-07T14:33:18.022Z,0.60
2018-07-07T14:35:45.771Z,0.67
2018-07-07T14:38:13.446Z,0.63
2018-07-07T14:40:50.049Z,0.60
2018-07-07T14:43:18.040Z,0.67
2018-07-07T14:46:20.749Z,0.60
2018-07-07T14:48:48.784Z,0.70
2018-07-07T14:51:16.549Z,0.50
2018-07-07T14:53:44.376Z,0.73
2018-07-07T14:56:12.330Z,0.80
2018-07-07T14:58:39.961Z,0.53
2018-07-07T15:01:07.830Z,0.80
2018-07-07T15:03:35.763Z,0.70
2018-07-07T15:06:03.408Z,0.80
2018-07-07T15:08:31.103Z,0.77
2018-07-07T15:10:59.096Z,0.80
2018-07-07T15:13:26.668Z,0.73
2018-07-07T15:15:54.344Z,0.70
2018-07-07T15:18:22.250Z,0.67
2018-07-07T15:20:49.922Z,0.70
2018-07-07T15:23:17.602Z,0.87
2018-07-07T15:25:45.546Z,0.70
2018-07-07T15:28:13.234Z,0.73
2018-07-07T15:30:40.928Z,0.60
2018-07-07T15:33:08.638Z,0.83
2018-07-07T15:35:36.264Z,0.70
2018-07-07T15:38:03.924Z,0.70
2018-07-07T15:40:31.839Z,0.67
2018-07-07T15:42:59.519Z,0.83
2018-07-07T15:45:27.146Z,0.50
2018-07-07T15:47:55.254Z,0.77
2018-07-07T15:50:22.906Z,0.80
2018-07-07T15:52:50.523Z,0.60
2018-07-07T15:55:18.743Z,0.80
2018-07-07T15:57:46.417Z,0.70
2018-07-07T16:00:14.129Z,0.80
2018-07-07T16:02:42.011Z,0.60
2018-07-07T16:05:09.651Z,0.70
2018-07-07T16:07:37.273Z,1.00
2018-07-07T16:10:05.400Z,1.40
2018-07-07T16:12:33.112Z,1.70
2018-07-07T16:15:00.760Z,1.50
2018-07-07T16:17:28.838Z,1.27
2018-07-07T16:19:56.501Z,1.10
2018-07-07T16:22:24.202Z,2.70
2018-07-07T16:24:51.981Z,1.80
2018-07-07T16:27:19.604Z,1.00
2018-07-07T16:29:47.233Z,1.60
2018-07-07T16:32:15.312Z,1.63
2018-07-07T16:34:43.033Z,1.03
2018-07-07T16:37:10.653Z,0.77
2018-07-07T16:39:38.605Z,0.73
2018-07-07T16:42:06.265Z,0.73
2018-07-07T16:44:34.185Z,0.70
2018-07-07T16:47:02.564Z,0.83
2018-07-07T16:49:30.490Z,0.90
2018-07-07T16:51:59.519Z,0.83
2018-07-07T16:54:28.004Z,0.80
2018-07-07T16:56:55.861Z,0.70
2018-07-07T16:59:23.575Z,0.90
2018-07-07T17:01:52.165Z,0.80
2018-07-07T17:04:20.109Z,0.60
2018-07-07T17:06:48.134Z,0.70
2018-07-07T17:09:16.256Z,0.90
2018-07-07T17:11:44.091Z,0.90
2018-07-07T17:14:12.116Z,0.80
2018-07-07T17:16:40.647Z,0.90
2018-07-07T17:19:08.408Z,0.73
2018-07-07T17:21:36.703Z,1.00
2018-07-07T17:24:04.895Z,0.90
2018-07-07T17:26:33.000Z,1.00
2018-07-07T17:29:00.687Z,1.30
2018-07-07T17:31:28.698Z,1.00
2018-07-07T17:33:57.666Z,0.90
2018-07-07T17:36:25.418Z,0.83
2018-07-07T17:38:53.722Z,0.90
2018-07-07T17:41:21.692Z,1.07
2018-07-07T17:43:49.782Z,1.67
2018-07-07T17:46:17.841Z,1.40
2018-07-07T17:48:45.512Z,1.23
2018-07-07T17:51:13.490Z,1.23
2018-07-07T17:53:41.648Z,1.60
2018-07-07T17:56:09.363Z,1.30
2018-07-07T17:58:37.213Z,1.20
2018-07-07T18:01:05.395Z,1.10
2018-07-07T18:03:33.134Z,1.10
2018-07-07T18:06:00.821Z,1.30
2018-07-07T18:08:28.772Z,1.03
2018-07-07T18:10:56.409Z,1.10
2018-07-07T18:13:24.037Z,0.97
2018-07-07T18:15:51.926Z,1.20
2018-07-07T18:18:19.608Z,1.20
2018-07-07T18:20:47.267Z,1.07
2018-07-07T18:23:16.145Z,1.10
2018-07-07T18:25:43.728Z,1.10
2018-07-07T18:28:11.417Z,1.00
2018-07-07T18:30:39.381Z,1.00
2018-07-07T18:33:07.007Z,1.03
2018-07-07T18:35:34.609Z,1.20
2018-07-07T18:38:02.659Z,1.13
2018-07-07T18:40:30.275Z,1.20
2018-07-07T18:42:57.877Z,1.20
2018-07-07T18:45:25.679Z,1.20
2018-07-07T18:47:53.372Z,1.33
2018-07-07T18:50:21.112Z,1.20
2018-07-07T18:52:49.444Z,1.03
2018-07-07T18:55:17.137Z,0.97
2018-07-07T18:57:44.771Z,1.30
2018-07-07T19:00:12.747Z,1.00
2018-07-07T19:02:40.371Z,1.40
2018-07-07T19:05:08.014Z,1.30
2018-07-07T19:07:35.882Z,1.10
2018-07-07T19:10:03.646Z,1.13
2018-07-07T19:12:31.301Z,1.10
2018-07-07T19:15:04.584Z,1.30
2018-07-07T19:17:32.510Z,1.23
2018-07-07T19:20:00.396Z,1.10
2018-07-07T19:22:33.479Z,1.17
2018-07-07T19:25:06.860Z,1.23
2018-07-07T19:27:34.824Z,1.17
2018-07-07T19:30:02.761Z,1.20
2018-07-07T19:32:36.021Z,1.50
2018-07-07T19:35:09.520Z,1.13
2018-07-07T19:37:37.303Z,1.30
2018-07-07T19:40:05.180Z,1.17
2018-07-07T19:42:32.804Z,1.23
2018-07-07T19:45:00.599Z,1.00
2018-07-07T19:47:28.472Z,1.40
2018-07-07T19:49:56.094Z,1.50
2018-07-07T19:52:23.965Z,1.50
2018-07-07T19:54:51.909Z,1.47
2018-07-07T19:57:19.536Z,1.47
2018-07-07T19:59:47.384Z,1.27
2018-07-07T20:02:15.181Z,1.20
2018-07-07T20:04:42.870Z,1.33
2018-07-07T20:07:10.772Z,1.27
2018-07-07T20:09:38.480Z,1.17
2018-07-07T20:12:06.095Z,1.40
2018-07-07T20:14:33.908Z,1.23
2018-07-07T20:17:10.499Z,1.17
2018-07-07T20:19:54.922Z,1.27
2018-07-07T20:22:22.855Z,1.40
2018-07-07T20:24:50.456Z,1.27
2018-07-07T20:27:23.633Z,1.07
2018-07-07T20:29:51.638Z,1.07
2018-07-07T20:32:24.753Z,1.30
2018-07-07T20:34:52.606Z,1.13
2018-07-07T20:37:20.371Z,1.10
2018-07-07T20:39:48.019Z,1.30
2018-07-07T20:42:15.966Z,1.10
2018-07-07T20:44:43.577Z,1.20
2018-07-07T20:47:11.208Z,1.30
2018-07-07T20:52:02.891Z,1.20
2018-07-07T20:54:30.520Z,1.27
2018-07-07T20:56:59.006Z,1.03
2018-07-07T20:59:26.952Z,1.00
2018-07-07T21:01:54.548Z,1.10
2018-07-07T21:04:22.202Z,0.80
2018-07-07T21:06:50.132Z,0.87
2018-07-07T21:09:17.782Z,0.97
2018-07-07T21:11:45.497Z,0.80
2018-07-07T21:14:13.342Z,0.80
2018-07-07T21:16:40.997Z,0.90
2018-07-07T21:19:08.625Z,0.90
2018-07-07T21:21:36.756Z,1.10
2018-07-07T21:24:04.411Z,0.90
2018-07-07T21:26:32.021Z,0.90
2018-07-07T21:29:00.190Z,1.00
2018-07-07T21:31:27.812Z,0.83
2018-07-07T21:33:55.644Z,0.90
2018-07-07T21:36:23.617Z,0.70
2018-07-07T21:38:51.223Z,0.90
2018-07-07T21:41:18.854Z,0.97
2018-07-07T21:43:47.890Z,0.90
2018-07-07T21:46:15.525Z,0.90
2018-07-07T21:48:43.181Z,0.70
2018-07-07T21:51:11.237Z,0.80
2018-07-07T21:53:38.961Z,0.90
2018-07-07T21:56:06.861Z,0.80
2018-07-07T21:58:35.035Z,0.80
2018-07-07T22:01:14.615Z,0.80
2018-07-07T22:03:48.088Z,0.70
2018-07-07T22:06:22.339Z,0.73
2018-07-07T22:08:50.210Z,0.80
2018-07-07T22:11:17.893Z,0.70
2018-07-07T22:13:45.749Z,0.80
2018-07-07T22:16:13.622Z,0.80
2018-07-07T22:18:41.320Z,1.17
2018-07-07T22:21:20.088Z,0.90
2018-07-07T22:23:47.803Z,0.70
2018-07-07T22:26:15.353Z,0.83
2018-07-07T22:28:43.049Z,0.60
2018-07-07T22:31:10.975Z,0.70
2018-07-07T22:33:38.595Z,0.80
2018-07-07T22:36:11.821Z,0.80
2018-07-07T22:38:45.280Z,0.83
2018-07-07T22:41:13.186Z,0.63
2018-07-07T22:43:40.887Z,0.60
2018-07-07T22:46:09.146Z,0.73
2018-07-07T22:48:36.925Z,0.77
2018-07-07T22:51:04.809Z,0.70
2018-07-07T22:53:32.483Z,0.60
2018-07-07T22:56:00.363Z,0.80
2018-07-07T22:58:28.202Z,0.70
2018-07-07T23:00:56.074Z,0.60
2018-07-07T23:03:23.981Z,0.57
2018-07-07T23:05:51.708Z,0.80
2018-07-07T23:08:19.428Z,0.47
2018-07-07T23:10:47.254Z,0.60
2018-07-07T23:13:15.141Z,0.73
2018-07-07T23:15:42.830Z,0.80
2018-07-07T23:18:10.747Z,0.60
2018-07-07T23:20:38.599Z,0.60
2018-07-07T23:23:06.267Z,0.60
2018-07-07T23:25:34.007Z,0.60
2018-07-07T23:28:02.026Z,0.70
2018-07-07T23:30:29.635Z,0.77
2018-07-07T23:32:57.550Z,0.87
2018-07-07T23:35:25.557Z,1.00
2018-07-07T23:37:53.270Z,0.80
2018-07-07T23:40:21.089Z,0.60
2018-07-07T23:42:48.969Z,0.80
2018-07-07T23:45:16.603Z,0.60
2018-07-07T23:47:44.325Z,0.50
2018-07-07T23:50:12.169Z,0.73
2018-07-07T23:52:39.817Z,0.60
2018-07-07T23:55:07.786Z,0.60
2018-07-07T23:57:35.599Z,0.60
